Terminal Aerodrome Forecast
Issued by NWS Grand Junction, CO

Home | Current Version | Previous Version | Text Only | Print | Product List | Glossary On
Versions: 1 2 3 4 5 6 7 8 9 10 11 12 13 14 15 16 17 18 19 20 21 22 23 24 25 26 27 28 29 30 31
000
FTUS45 KGJT 260540
TAFGJT
TAF
KGJT 260540Z 2606/2706 34007KT P6SM VCSH SCT020 OVC040
      TEMPO 2606/2608 5SM -SHSN OVC040
     FM261000 VRB03KT P6SM VCSH BKN020
     FM261300 VRB04KT P6SM BKN040
     FM261800 34006KT P6SM VCSH BKN030
     FM270200 04005KT P6SM BKN080=

USA.gov is the U.S. government's official web portal to all federal, state and local government web resources and services.